Time;durP1;ratioP1;P1;durP2;ratioP2;P2;SDS_P1;SDS_P2;PMS_P1;PMS_P2;Temp;Humidity;BMP_temperature;BMP_pressure;BME280_temperature;BME280_humidity;BME280_pressure;Samples;Min_cycle;Max_cycle;Signal;HPM_P1;HPM_P2
2022/08/20 00:01:57;;;;;;;;;;;12.90;99.90;;;;;;5070636;28;20427;-70
2022/08/20 00:04:23;;;;;;;;;;;13.00;99.90;;;;;;5074153;28;20830;-70
2022/08/20 00:06:48;;;;;;;;;;;13.00;99.90;;;;;;5051873;28;19938;-70
2022/08/20 00:09:14;;;;;;;;;;;13.00;99.90;;;;;;5068615;28;19931;-69
2022/08/20 00:11:39;;;;;;;;;;;12.90;99.90;;;;;;5063082;28;19917;-69
2022/08/20 00:14:05;;;;;;;;;;;12.90;99.90;;;;;;5068796;28;20015;-70
2022/08/20 00:16:32;;;;;;;;;;;12.80;99.90;;;;;;5063489;28;20022;-70
2022/08/20 00:19:00;;;;;;;;;;;12.70;99.90;;;;;;5047743;28;20040;-70
2022/08/20 00:21:26;;;;;;;;;;;12.60;99.90;;;;;;5069056;28;19923;-69
2022/08/20 00:23:52;;;;;;;;;;;12.60;99.90;;;;;;5065583;28;20154;-69
2022/08/20 00:26:18;;;;;;;;;;;12.60;99.90;;;;;;5065338;28;20093;-70
2022/08/20 00:28:44;;;;;;;;;;;12.60;99.90;;;;;;5060580;28;19924;-69
2022/08/20 00:31:11;;;;;;;;;;;12.70;99.90;;;;;;5057699;28;20061;-70
2022/08/20 00:33:38;;;;;;;;;;;12.80;99.90;;;;;;5060251;28;19999;-70
2022/08/20 00:36:09;;;;;;;;;;;12.80;99.90;;;;;;5060415;28;19924;-70
2022/08/20 00:38:35;;;;;;;;;;;12.90;99.90;;;;;;5060408;28;19977;-69
2022/08/20 00:41:01;;;;;;;;;;;12.80;99.90;;;;;;5073155;28;20355;-69
2022/08/20 00:43:26;;;;;;;;;;;12.80;99.90;;;;;;5064180;28;19924;-69
2022/08/20 00:45:56;;;;;;;;;;;12.70;99.90;;;;;;5063399;28;19970;-69
2022/08/20 00:48:25;;;;;;;;;;;12.70;99.90;;;;;;5068007;28;20743;-69
2022/08/20 00:50:52;;;;;;;;;;;12.60;99.90;;;;;;5054341;28;20300;-69
2022/08/20 00:53:19;;;;;;;;;;;12.50;99.90;;;;;;5047249;28;19941;-69
2022/08/20 00:55:44;;;;;;;;;;;12.30;99.90;;;;;;5071444;28;19927;-69
2022/08/20 00:58:10;;;;;;;;;;;12.20;99.90;;;;;;5067496;28;19924;-69
2022/08/20 01:00:37;;;;;;;;;;;12.10;99.90;;;;;;5058766;28;19916;-70
2022/08/20 01:03:07;;;;;;;;;;;12.10;99.90;;;;;;5065797;28;20021;-70
2022/08/20 01:05:33;;;;;;;;;;;12.10;99.90;;;;;;5062988;28;19928;-69
2022/08/20 01:07:59;;;;;;;;;;;12.10;99.90;;;;;;5058375;28;19916;-69
2022/08/20 01:10:27;;;;;;;;;;;12.00;99.90;;;;;;5062220;28;19938;-69
2022/08/20 01:12:53;;;;;;;;;;;12.00;99.90;;;;;;5063542;28;19966;-69
2022/08/20 01:15:22;;;;;;;;;;;11.90;99.90;;;;;;5068186;28;19927;-69
2022/08/20 01:17:50;;;;;;;;;;;12.00;99.90;;;;;;5062517;28;19936;-68
2022/08/20 01:20:20;;;;;;;;;;;12.00;99.90;;;;;;5068827;28;19916;-70
2022/08/20 01:25:49;;;;;;;;;;;11.90;99.90;;;;;;5063954;28;19927;-69
2022/08/20 01:28:18;;;;;;;;;;;11.80;99.90;;;;;;5039419;28;20384;-69
2022/08/20 01:30:43;;;;;;;;;;;11.80;99.90;;;;;;5060224;28;19917;-69
2022/08/20 01:33:09;;;;;;;;;;;11.70;99.90;;;;;;5049675;28;19916;-70
2022/08/20 01:35:37;;;;;;;;;;;11.80;99.90;;;;;;5056306;28;20022;-69
2022/08/20 01:38:03;;;;;;;;;;;11.90;99.90;;;;;;5043780;28;19924;-70
2022/08/20 01:40:46;;;;;;;;;;;11.90;99.90;;;;;;5039535;28;19961;-69
2022/08/20 01:43:12;;;;;;;;;;;11.80;99.90;;;;;;5068525;28;19997;-70
2022/08/20 01:45:39;;;;;;;;;;;11.70;99.90;;;;;;3890587;23;19924;-72
2022/08/20 01:48:05;;;;;;;;;;;11.70;99.90;;;;;;5037166;28;20030;-72
2022/08/20 01:50:31;;;;;;;;;;;11.70;99.90;;;;;;5053024;28;19916;-72
2022/08/20 01:52:56;;;;;;;;;;;11.70;99.90;;;;;;5040150;28;19916;-72
2022/08/20 01:55:22;;;;;;;;;;;11.60;99.90;;;;;;5045837;28;19917;-72
2022/08/20 01:57:48;;;;;;;;;;;11.60;99.90;;;;;;5045554;28;20089;-72
2022/08/20 02:00:16;;;;;;;;;;;11.60;99.90;;;;;;5033787;28;19912;-72
2022/08/20 02:02:42;;;;;;;;;;;11.60;99.90;;;;;;5048233;28;19966;-72
2022/08/20 02:05:07;;;;;;;;;;;11.60;99.90;;;;;;5048067;28;20370;-72
2022/08/20 02:07:33;;;;;;;;;;;11.60;99.90;;;;;;5056758;28;19948;-72
2022/08/20 02:09:59;;;;;;;;;;;11.60;99.90;;;;;;5053965;28;20346;-72
2022/08/20 02:12:25;;;;;;;;;;;11.70;99.90;;;;;;5053680;28;19943;-72
2022/08/20 02:14:52;;;;;;;;;;;11.60;99.90;;;;;;5051572;28;20015;-72
2022/08/20 02:17:19;;;;;;;;;;;11.60;99.90;;;;;;5047538;28;20074;-72
2022/08/20 02:19:47;;;;;;;;;;;11.50;99.90;;;;;;5042329;28;19917;-73
2022/08/20 02:22:21;;;;;;;;;;;11.50;99.90;;;;;;5048651;28;19928;-72
2022/08/20 02:24:46;;;;;;;;;;;11.50;99.90;;;;;;5047587;28;20294;-72
2022/08/20 02:27:12;;;;;;;;;;;11.60;99.90;;;;;;5048353;28;19936;-72
2022/08/20 02:29:38;;;;;;;;;;;11.60;99.90;;;;;;5051645;28;19964;-72
2022/08/20 02:32:05;;;;;;;;;;;11.50;99.90;;;;;;5055132;28;19920;-73
2022/08/20 02:34:31;;;;;;;;;;;11.60;99.90;;;;;;5057608;28;19934;-72
2022/08/20 02:36:56;;;;;;;;;;;11.50;99.90;;;;;;5056134;28;20091;-72
2022/08/20 02:39:22;;;;;;;;;;;11.60;99.90;;;;;;5058668;28;19979;-72
2022/08/20 02:41:49;;;;;;;;;;;11.70;99.90;;;;;;5057366;28;19912;-72
2022/08/20 02:44:19;;;;;;;;;;;11.70;99.90;;;;;;5057176;28;20007;-72
2022/08/20 02:46:44;;;;;;;;;;;11.70;99.90;;;;;;5066183;28;19939;-72
2022/08/20 02:49:10;;;;;;;;;;;11.70;99.90;;;;;;5070238;28;19916;-72
2022/08/20 02:51:36;;;;;;;;;;;11.80;99.90;;;;;;5075426;28;19916;-73
2022/08/20 02:54:01;;;;;;;;;;;11.80;99.90;;;;;;5071233;28;20371;-72
2022/08/20 02:56:27;;;;;;;;;;;11.80;99.90;;;;;;5076332;28;20294;-72
2022/08/20 02:58:52;;;;;;;;;;;11.80;99.90;;;;;;5073352;28;19967;-72
2022/08/20 03:01:18;;;;;;;;;;;11.70;99.90;;;;;;5078756;28;19973;-72
2022/08/20 03:03:44;;;;;;;;;;;11.70;99.90;;;;;;5077574;28;20177;-72
2022/08/20 03:06:11;;;;;;;;;;;11.70;99.90;;;;;;5076408;28;19916;-72
2022/08/20 03:08:37;;;;;;;;;;;11.60;99.90;;;;;;5075347;28;19916;-72
2022/08/20 03:11:03;;;;;;;;;;;11.50;99.90;;;;;;5080599;28;20343;-72
2022/08/20 03:13:28;;;;;;;;;;;11.50;99.90;;;;;;5076834;28;19912;-72
2022/08/20 03:15:55;;;;;;;;;;;11.40;99.90;;;;;;5078176;28;19912;-72
2022/08/20 03:18:22;;;;;;;;;;;11.30;99.90;;;;;;5078228;28;19916;-72
2022/08/20 03:20:48;;;;;;;;;;;11.20;99.90;;;;;;5077353;28;19966;-72
2022/08/20 03:23:15;;;;;;;;;;;11.10;99.90;;;;;;5078586;28;19916;-72
2022/08/20 03:25:40;;;;;;;;;;;11.20;99.90;;;;;;5073208;28;20278;-72
2022/08/20 03:28:07;;;;;;;;;;;11.10;99.90;;;;;;5079749;28;19959;-72
2022/08/20 03:30:32;;;;;;;;;;;11.10;99.90;;;;;;5070520;28;20291;-71
2022/08/20 03:32:58;;;;;;;;;;;11.10;99.90;;;;;;5075983;28;20549;-72
2022/08/20 03:35:25;;;;;;;;;;;11.10;99.90;;;;;;5078490;28;19912;-72
2022/08/20 03:37:51;;;;;;;;;;;11.10;99.90;;;;;;5078780;28;20522;-72
2022/08/20 03:40:22;;;;;;;;;;;11.10;99.90;;;;;;5078331;28;20057;-72
2022/08/20 03:42:48;;;;;;;;;;;11.10;99.90;;;;;;5072801;28;20250;-72
2022/08/20 03:45:13;;;;;;;;;;;11.10;99.90;;;;;;5079121;28;19923;-72
2022/08/20 03:47:40;;;;;;;;;;;11.10;99.90;;;;;;5061940;28;19936;-72
2022/08/20 03:50:06;;;;;;;;;;;11.10;99.90;;;;;;5077865;28;20717;-72
2022/08/20 03:52:32;;;;;;;;;;;11.00;99.90;;;;;;5077446;28;19916;-72
2022/08/20 03:54:57;;;;;;;;;;;11.00;99.90;;;;;;5080690;28;19962;-72
2022/08/20 03:57:23;;;;;;;;;;;10.90;99.90;;;;;;5080616;28;19981;-72
2022/08/20 03:59:50;;;;;;;;;;;10.80;99.90;;;;;;5080035;28;19909;-72
2022/08/20 04:02:16;;;;;;;;;;;10.80;99.90;;;;;;5080612;28;20682;-72
2022/08/20 04:04:41;;;;;;;;;;;10.70;99.90;;;;;;5079395;28;19916;-72
2022/08/20 04:07:09;;;;;;;;;;;10.60;99.90;;;;;;5082492;28;20019;-72
2022/08/20 04:09:35;;;;;;;;;;;10.60;99.90;;;;;;5078189;28;19946;-72
2022/08/20 04:12:01;;;;;;;;;;;10.50;99.90;;;;;;5081885;28;20420;-72
2022/08/20 04:14:26;;;;;;;;;;;10.40;99.90;;;;;;5079540;28;20336;-72
2022/08/20 04:16:52;;;;;;;;;;;10.30;99.90;;;;;;5067579;28;19970;-72
2022/08/20 04:19:17;;;;;;;;;;;10.30;99.90;;;;;;5077832;28;19913;-72
2022/08/20 04:21:43;;;;;;;;;;;10.30;99.90;;;;;;5083144;28;20037;-72
2022/08/20 04:24:09;;;;;;;;;;;10.30;99.90;;;;;;5079716;28;19912;-72
2022/08/20 04:26:36;;;;;;;;;;;10.30;99.90;;;;;;5083229;28;20300;-72
2022/08/20 04:29:02;;;;;;;;;;;10.30;99.90;;;;;;5080777;28;20821;-72
2022/08/20 04:31:32;;;;;;;;;;;10.30;99.90;;;;;;5083161;28;19924;-72
2022/08/20 04:33:58;;;;;;;;;;;10.30;99.90;;;;;;5077245;28;19923;-72
2022/08/20 04:36:24;;;;;;;;;;;10.30;99.90;;;;;;5083070;28;20489;-72
2022/08/20 04:38:49;;;;;;;;;;;10.40;99.90;;;;;;5082686;28;19955;-72
2022/08/20 04:41:15;;;;;;;;;;;10.30;99.90;;;;;;5081800;28;19951;-72
2022/08/20 04:43:40;;;;;;;;;;;10.20;99.90;;;;;;5085693;28;20030;-71
2022/08/20 04:46:08;;;;;;;;;;;10.20;99.90;;;;;;5075668;28;19951;-72
2022/08/20 04:48:37;;;;;;;;;;;10.20;99.90;;;;;;5083239;28;20348;-72
2022/08/20 04:51:05;;;;;;;;;;;10.20;99.90;;;;;;5081164;28;19920;-72
2022/08/20 04:53:31;;;;;;;;;;;10.10;99.90;;;;;;5071867;28;19916;-72
2022/08/20 04:55:58;;;;;;;;;;;10.00;99.90;;;;;;5068346;28;19932;-71
2022/08/20 04:58:26;;;;;;;;;;;10.00;99.90;;;;;;5078170;28;19962;-72
2022/08/20 05:00:54;;;;;;;;;;;9.90;99.90;;;;;;5081195;28;19953;-72
2022/08/20 05:03:20;;;;;;;;;;;9.90;99.90;;;;;;5074145;28;20042;-72
2022/08/20 05:05:46;;;;;;;;;;;9.90;99.90;;;;;;5076611;28;20049;-71
2022/08/20 05:08:12;;;;;;;;;;;9.90;99.90;;;;;;5073825;28;19923;-71
2022/08/20 05:10:38;;;;;;;;;;;10.00;99.90;;;;;;5072792;28;20065;-71
2022/08/20 05:13:04;;;;;;;;;;;10.00;99.90;;;;;;5080319;28;20434;-73
2022/08/20 05:15:30;;;;;;;;;;;10.10;99.90;;;;;;5077687;28;19970;-71
2022/08/20 05:17:59;;;;;;;;;;;10.20;99.90;;;;;;5080643;28;19971;-71
2022/08/20 05:20:26;;;;;;;;;;;10.20;99.90;;;;;;5079353;28;20005;-73
2022/08/20 05:22:53;;;;;;;;;;;10.20;99.90;;;;;;5076357;28;19923;-71
2022/08/20 05:25:20;;;;;;;;;;;10.30;99.90;;;;;;5077311;28;19920;-73
2022/08/20 05:27:46;;;;;;;;;;;10.30;99.90;;;;;;5081582;28;20053;-71
2022/08/20 05:30:11;;;;;;;;;;;10.30;99.90;;;;;;5084083;28;20016;-74
2022/08/20 05:32:37;;;;;;;;;;;10.30;99.90;;;;;;5076186;28;19926;-73
2022/08/20 05:35:08;;;;;;;;;;;10.30;99.90;;;;;;5081821;28;19927;-72
2022/08/20 05:37:35;;;;;;;;;;;10.40;99.90;;;;;;5077463;28;19946;-73
2022/08/20 05:40:01;;;;;;;;;;;10.40;99.90;;;;;;5077487;28;19916;-73
2022/08/20 05:42:27;;;;;;;;;;;10.40;99.90;;;;;;5078360;28;19916;-73
2022/08/20 05:44:53;;;;;;;;;;;10.50;99.90;;;;;;5078055;28;20221;-73
2022/08/20 05:47:18;;;;;;;;;;;10.50;99.90;;;;;;5074942;28;19989;-73
2022/08/20 05:49:45;;;;;;;;;;;10.60;99.90;;;;;;5079648;28;19977;-73
2022/08/20 05:52:11;;;;;;;;;;;10.60;99.90;;;;;;5078041;28;19916;-72
2022/08/20 05:54:37;;;;;;;;;;;10.70;99.90;;;;;;5078618;28;19926;-73
2022/08/20 05:57:03;;;;;;;;;;;10.80;99.90;;;;;;5076384;28;19955;-74
2022/08/20 05:59:28;;;;;;;;;;;10.90;99.90;;;;;;5077918;28;20266;-73
2022/08/20 06:01:54;;;;;;;;;;;11.00;99.90;;;;;;5075726;28;20387;-73
2022/08/20 06:04:27;;;;;;;;;;;11.00;99.90;;;;;;5077405;28;19999;-73
2022/08/20 06:07:00;;;;;;;;;;;11.00;99.90;;;;;;5079952;28;19926;-73
2022/08/20 06:09:26;;;;;;;;;;;11.10;99.90;;;;;;5074869;28;20268;-73
2022/08/20 06:11:52;;;;;;;;;;;11.10;99.90;;;;;;5076565;28;19938;-73
2022/08/20 06:14:17;;;;;;;;;;;11.20;99.90;;;;;;5078258;28;20033;-73
2022/08/20 06:16:43;;;;;;;;;;;11.30;99.90;;;;;;5076304;28;20121;-73
2022/08/20 06:19:09;;;;;;;;;;;11.30;99.90;;;;;;5078720;28;19916;-72
2022/08/20 06:21:34;;;;;;;;;;;11.40;99.90;;;;;;5078544;28;19915;-73
2022/08/20 06:24:00;;;;;;;;;;;11.50;99.90;;;;;;5073922;28;20675;-73
2022/08/20 06:26:26;;;;;;;;;;;11.80;99.90;;;;;;5075867;28;19920;-73
2022/08/20 06:28:52;;;;;;;;;;;11.90;99.90;;;;;;5075827;28;20022;-73
2022/08/20 06:31:17;;;;;;;;;;;12.00;99.90;;;;;;5078006;28;19916;-73
2022/08/20 06:33:43;;;;;;;;;;;12.00;99.90;;;;;;5076580;28;19973;-73
2022/08/20 06:36:08;;;;;;;;;;;12.10;99.90;;;;;;5078116;28;20330;-73
2022/08/20 06:38:34;;;;;;;;;;;12.20;99.90;;;;;;5074447;28;19916;-73
2022/08/20 06:40:59;;;;;;;;;;;12.30;99.90;;;;;;5077010;28;20011;-73
2022/08/20 06:43:25;;;;;;;;;;;12.40;99.90;;;;;;5075413;28;19916;-73
2022/08/20 06:45:50;;;;;;;;;;;12.50;99.90;;;;;;5073415;28;19916;-73
2022/08/20 06:48:16;;;;;;;;;;;12.60;99.90;;;;;;5080992;28;20033;-73
2022/08/20 06:50:45;;;;;;;;;;;12.70;99.90;;;;;;5078069;28;19959;-73
2022/08/20 06:53:12;;;;;;;;;;;12.80;99.90;;;;;;5079418;28;19916;-74
2022/08/20 06:55:39;;;;;;;;;;;12.90;99.90;;;;;;5079455;28;19912;-73
2022/08/20 06:58:06;;;;;;;;;;;13.00;99.90;;;;;;5069841;28;19935;-73
2022/08/20 07:00:33;;;;;;;;;;;13.10;99.90;;;;;;5078587;28;19963;-73
2022/08/20 07:03:02;;;;;;;;;;;13.30;99.90;;;;;;5073967;28;19923;-73
2022/08/20 07:05:32;;;;;;;;;;;13.40;99.90;;;;;;5071396;28;20491;-73
2022/08/20 07:07:58;;;;;;;;;;;13.50;99.90;;;;;;5071608;28;19924;-73
2022/08/20 07:10:24;;;;;;;;;;;13.60;99.90;;;;;;5075332;28;20409;-71
2022/08/20 07:12:49;;;;;;;;;;;13.80;99.90;;;;;;5072380;28;20379;-73
2022/08/20 07:15:16;;;;;;;;;;;13.90;99.90;;;;;;5072351;28;19920;-73
2022/08/20 07:17:41;;;;;;;;;;;14.10;99.90;;;;;;5072465;28;19963;-73
2022/08/20 07:20:11;;;;;;;;;;;14.20;99.90;;;;;;5072798;28;20015;-74
2022/08/20 07:22:36;;;;;;;;;;;14.30;99.90;;;;;;5077429;28;19927;-73
2022/08/20 07:25:03;;;;;;;;;;;14.50;99.90;;;;;;5083903;28;19912;-73
2022/08/20 07:27:29;;;;;;;;;;;14.70;99.90;;;;;;5080235;28;19912;-73
2022/08/20 07:32:38;;;;;;;;;;;15.20;99.90;;;;;;5076464;28;19960;-73
2022/08/20 07:35:09;;;;;;;;;;;15.50;99.90;;;;;;5081960;28;19920;-74
2022/08/20 07:37:39;;;;;;;;;;;15.70;99.90;;;;;;5074247;28;19965;-75
2022/08/20 07:40:06;;;;;;;;;;;15.80;99.90;;;;;;5078815;28;19952;-74
2022/08/20 07:42:32;;;;;;;;;;;15.90;99.90;;;;;;5079759;28;19923;-75
2022/08/20 07:44:57;;;;;;;;;;;16.10;99.90;;;;;;5079852;28;20241;-74
2022/08/20 07:47:23;;;;;;;;;;;16.30;99.90;;;;;;5071845;28;19958;-73
2022/08/20 07:49:48;;;;;;;;;;;16.60;99.90;;;;;;5079496;28;19946;-74
2022/08/20 07:52:14;;;;;;;;;;;17.20;99.90;;;;;;5071665;28;20455;-75
2022/08/20 07:54:41;;;;;;;;;;;20.60;99.90;;;;;;5067272;28;19924;-74
2022/08/20 07:57:07;;;;;;;;;;;24.50;99.90;;;;;;5065538;28;19928;-74
2022/08/20 07:59:33;;;;;;;;;;;28.10;94.20;;;;;;5065729;28;19920;-74
2022/08/20 08:01:58;;;;;;;;;;;30.80;81.50;;;;;;5070508;28;19931;-75
2022/08/20 08:04:24;;;;;;;;;;;32.00;70.20;;;;;;5072611;28;19916;-74
2022/08/20 08:06:50;;;;;;;;;;;33.30;62.90;;;;;;5081583;28;19923;-75
2022/08/20 08:09:16;;;;;;;;;;;34.60;58.50;;;;;;5078331;28;19916;-74
2022/08/20 08:11:50;;;;;;;;;;;35.80;53.10;;;;;;5074736;28;19922;-73
2022/08/20 08:14:18;;;;;;;;;;;35.70;49.40;;;;;;5075808;28;19959;-73
2022/08/20 08:16:44;;;;;;;;;;;36.50;47.20;;;;;;5076959;28;20015;-72
2022/08/20 08:19:10;;;;;;;;;;;36.00;45.40;;;;;;5074054;28;20006;-72
2022/08/20 08:21:36;;;;;;;;;;;36.30;44.60;;;;;;5074330;28;19913;-72
2022/08/20 08:24:02;;;;;;;;;;;36.80;42.90;;;;;;5073010;28;19916;-73
2022/08/20 08:26:27;;;;;;;;;;;37.00;43.10;;;;;;5061895;28;20569;-74
2022/08/20 08:28:53;;;;;;;;;;;37.80;41.60;;;;;;5066351;28;19920;-73
2022/08/20 08:31:18;;;;;;;;;;;36.80;40.70;;;;;;5067863;28;20062;-73
2022/08/20 08:33:44;;;;;;;;;;;37.20;41.60;;;;;;5067009;28;20340;-73
2022/08/20 08:36:10;;;;;;;;;;;37.30;40.30;;;;;;5070628;28;20437;-72
2022/08/20 08:38:38;;;;;;;;;;;37.10;40.00;;;;;;5063623;28;19920;-72
2022/08/20 08:41:12;;;;;;;;;;;37.90;38.90;;;;;;5072464;28;20643;-73
2022/08/20 08:43:38;;;;;;;;;;;38.10;37.60;;;;;;5065997;28;19959;-73
2022/08/20 08:46:06;;;;;;;;;;;36.40;38.40;;;;;;5061816;28;20014;-73
2022/08/20 08:48:37;;;;;;;;;;;36.90;38.50;;;;;;5043366;28;19917;-72
2022/08/20 08:51:03;;;;;;;;;;;36.90;38.90;;;;;;5052824;28;19948;-72
2022/08/20 08:53:37;;;;;;;;;;;36.80;38.20;;;;;;5047202;28;20551;-73
2022/08/20 08:56:04;;;;;;;;;;;35.60;37.70;;;;;;5046388;28;20021;-73
2022/08/20 08:58:32;;;;;;;;;;;34.80;37.70;;;;;;5047377;28;19924;-74
2022/08/20 09:01:00;;;;;;;;;;;33.40;41.40;;;;;;5047470;28;19936;-73
2022/08/20 09:03:28;;;;;;;;;;;31.20;43.10;;;;;;5043479;28;19921;-73
2022/08/20 09:05:57;;;;;;;;;;;29.70;45.90;;;;;;5042105;28;20443;-73
2022/08/20 09:08:24;;;;;;;;;;;29.70;47.90;;;;;;5045206;28;19917;-72
2022/08/20 09:10:50;;;;;;;;;;;28.70;48.00;;;;;;5044426;28;20368;-72
2022/08/20 09:13:15;;;;;;;;;;;27.90;53.80;;;;;;5041923;28;19961;-74
2022/08/20 09:15:41;;;;;;;;;;;28.30;51.10;;;;;;5037899;28;20003;-73
2022/08/20 09:18:06;;;;;;;;;;;29.80;48.00;;;;;;5049458;28;20347;-73
2022/08/20 09:20:32;;;;;;;;;;;31.90;49.30;;;;;;5047408;28;19924;-74
2022/08/20 09:22:58;;;;;;;;;;;33.90;43.80;;;;;;5043370;28;20102;-73
2022/08/20 09:25:23;;;;;;;;;;;35.10;42.50;;;;;;5045652;28;19921;-73
2022/08/20 09:27:49;;;;;;;;;;;34.80;39.40;;;;;;5046222;28;19925;-74
2022/08/20 09:30:15;;;;;;;;;;;34.80;38.50;;;;;;5050024;28;20417;-73
2022/08/20 09:32:41;;;;;;;;;;;35.20;39.40;;;;;;5047779;28;19924;-74
2022/08/20 09:35:06;;;;;;;;;;;35.60;40.60;;;;;;5046005;28;19924;-75
2022/08/20 09:37:32;;;;;;;;;;;36.10;37.40;;;;;;5037468;28;19931;-74
2022/08/20 09:39:58;;;;;;;;;;;36.10;38.80;;;;;;5044910;28;19924;-74
2022/08/20 09:42:31;;;;;;;;;;;36.50;36.00;;;;;;5057216;28;19920;-74
2022/08/20 09:44:57;;;;;;;;;;;35.70;38.60;;;;;;5055720;28;20267;-73
2022/08/20 09:47:23;;;;;;;;;;;34.80;36.70;;;;;;5063677;28;19986;-75
2022/08/20 09:49:49;;;;;;;;;;;34.30;38.00;;;;;;5073536;28;19920;-75
2022/08/20 09:52:25;;;;;;;;;;;34.80;38.60;;;;;;5081279;28;20232;-73
2022/08/20 09:54:53;;;;;;;;;;;33.60;39.70;;;;;;5079484;28;19916;-74
2022/08/20 09:57:19;;;;;;;;;;;32.20;40.40;;;;;;5068797;28;19953;-73
2022/08/20 09:59:47;;;;;;;;;;;30.30;43.60;;;;;;5064582;28;19967;-73
2022/08/20 10:02:12;;;;;;;;;;;28.80;45.60;;;;;;5065661;28;20608;-73
2022/08/20 10:04:37;;;;;;;;;;;27.20;50.40;;;;;;5060493;28;19926;-75
2022/08/20 10:07:07;;;;;;;;;;;26.20;53.60;;;;;;5065089;28;19919;-75
2022/08/20 10:09:34;;;;;;;;;;;25.20;56.30;;;;;;5069174;28;20169;-75
2022/08/20 10:11:59;;;;;;;;;;;24.20;62.20;;;;;;5066721;28;20047;-75
2022/08/20 10:14:25;;;;;;;;;;;24.10;66.30;;;;;;5075006;28;20007;-75
2022/08/20 10:16:55;;;;;;;;;;;24.10;70.00;;;;;;5069812;28;19924;-76
2022/08/20 10:19:20;;;;;;;;;;;25.30;73.80;;;;;;5075628;28;20482;-76
2022/08/20 10:21:46;;;;;;;;;;;28.00;59.60;;;;;;5068763;28;19951;-75
2022/08/20 10:24:11;;;;;;;;;;;29.90;53.80;;;;;;5071752;28;20325;-75
2022/08/20 10:26:37;;;;;;;;;;;29.20;50.70;;;;;;5069342;28;19955;-72
2022/08/20 10:29:02;;;;;;;;;;;28.10;55.30;;;;;;5086485;28;19994;-72
2022/08/20 10:31:29;;;;;;;;;;;27.10;59.00;;;;;;5079641;28;20217;-75
2022/08/20 10:33:55;;;;;;;;;;;26.40;58.30;;;;;;5077924;28;19916;-75
2022/08/20 10:36:21;;;;;;;;;;;26.20;59.20;;;;;;5078885;28;20102;-75
2022/08/20 10:38:47;;;;;;;;;;;25.80;60.40;;;;;;5081018;28;19938;-75
2022/08/20 10:41:13;;;;;;;;;;;25.90;62.70;;;;;;5079152;28;20003;-75
2022/08/20 10:43:38;;;;;;;;;;;25.70;62.20;;;;;;5080029;28;20007;-75
2022/08/20 10:46:04;;;;;;;;;;;25.00;67.50;;;;;;5089533;28;20012;-75
2022/08/20 10:48:30;;;;;;;;;;;24.50;77.00;;;;;;5078384;28;20429;-74
2022/08/20 10:50:56;;;;;;;;;;;24.40;77.30;;;;;;5078716;28;20366;-75
2022/08/20 10:53:21;;;;;;;;;;;24.60;79.50;;;;;;5067635;28;19923;-76
2022/08/20 10:55:47;;;;;;;;;;;25.10;83.30;;;;;;5069547;28;19971;-74
2022/08/20 10:58:12;;;;;;;;;;;25.60;73.90;;;;;;5075250;28;19924;-75
2022/08/20 11:00:38;;;;;;;;;;;25.60;77.10;;;;;;5070312;28;19920;-75
2022/08/20 11:03:04;;;;;;;;;;;25.20;74.40;;;;;;5071819;28;19916;-76
2022/08/20 11:05:29;;;;;;;;;;;25.30;76.80;;;;;;5074974;28;20157;-77
2022/08/20 11:07:55;;;;;;;;;;;26.50;73.10;;;;;;5076467;28;19919;-75
2022/08/20 11:10:21;;;;;;;;;;;27.20;67.60;;;;;;5052694;28;19916;-75
2022/08/20 11:12:47;;;;;;;;;;;27.00;67.50;;;;;;5078731;28;20765;-76
2022/08/20 11:15:13;;;;;;;;;;;26.50;70.70;;;;;;5078623;28;20387;-77
2022/08/20 11:17:40;;;;;;;;;;;25.90;68.00;;;;;;5076735;28;19930;-76
2022/08/20 11:20:06;;;;;;;;;;;25.30;74.20;;;;;;5066655;28;20054;-76
2022/08/20 11:22:32;;;;;;;;;;;25.70;76.10;;;;;;5065937;28;20661;-78
2022/08/20 11:24:58;;;;;;;;;;;26.40;70.30;;;;;;5071715;28;19916;-77
2022/08/20 11:27:30;;;;;;;;;;;25.90;74.10;;;;;;5061998;28;19920;-77
2022/08/20 11:29:55;;;;;;;;;;;25.30;80.10;;;;;;5064367;28;20052;-77
2022/08/20 11:32:21;;;;;;;;;;;24.70;81.90;;;;;;5064169;28;19943;-78
2022/08/20 11:34:47;;;;;;;;;;;24.20;85.70;;;;;;5064358;28;20363;-76
2022/08/20 11:37:13;;;;;;;;;;;24.20;90.30;;;;;;5070675;28;19924;-78
2022/08/20 11:39:39;;;;;;;;;;;24.50;92.10;;;;;;5066420;28;19920;-76
2022/08/20 11:42:04;;;;;;;;;;;24.70;89.50;;;;;;5063667;28;19927;-76
2022/08/20 11:44:30;;;;;;;;;;;24.90;87.60;;;;;;5066920;28;19992;-77
2022/08/20 11:47:01;;;;;;;;;;;25.20;89.40;;;;;;5067757;28;19924;-76
2022/08/20 11:49:27;;;;;;;;;;;25.30;86.50;;;;;;5064555;28;19919;-76
2022/08/20 11:51:53;;;;;;;;;;;25.20;82.00;;;;;;5062610;28;19916;-76
2022/08/20 11:54:18;;;;;;;;;;;24.90;90.00;;;;;;5057421;28;19943;-76
2022/08/20 11:56:44;;;;;;;;;;;24.80;87.80;;;;;;5058400;28;19924;-77
2022/08/20 11:59:10;;;;;;;;;;;25.20;82.50;;;;;;5061056;28;20034;-77
2022/08/20 12:01:35;;;;;;;;;;;25.20;86.60;;;;;;5057719;28;19923;-77
2022/08/20 12:04:01;;;;;;;;;;;25.90;86.80;;;;;;5067899;28;20264;-77
2022/08/20 12:06:27;;;;;;;;;;;26.70;84.10;;;;;;5076539;28;20336;-77
2022/08/20 12:08:52;;;;;;;;;;;27.80;73.80;;;;;;5080700;28;19916;-75
2022/08/20 12:11:18;;;;;;;;;;;28.30;76.70;;;;;;5074520;28;19916;-77
2022/08/20 12:13:44;;;;;;;;;;;28.90;73.80;;;;;;5071853;28;19955;-75
2022/08/20 12:16:09;;;;;;;;;;;28.60;69.00;;;;;;5078929;28;19932;-75
2022/08/20 12:18:35;;;;;;;;;;;27.80;69.70;;;;;;5070168;28;19935;-76
2022/08/20 12:21:00;;;;;;;;;;;27.50;75.20;;;;;;5081648;28;19920;-81
2022/08/20 12:23:26;;;;;;;;;;;27.80;80.60;;;;;;5077199;28;20403;-75
2022/08/20 12:25:51;;;;;;;;;;;28.50;75.80;;;;;;5081931;28;19912;-76
2022/08/20 12:28:17;;;;;;;;;;;28.90;67.00;;;;;;5075283;28;20594;-76
2022/08/20 12:30:42;;;;;;;;;;;28.90;68.60;;;;;;5075824;28;19922;-77
2022/08/20 12:33:08;;;;;;;;;;;28.30;70.60;;;;;;5078168;28;19916;-76
2022/08/20 12:35:34;;;;;;;;;;;28.30;68.90;;;;;;5079208;28;19916;-75
2022/08/20 12:38:03;;;;;;;;;;;28.10;70.40;;;;;;5079371;28;19930;-75
2022/08/20 12:40:29;;;;;;;;;;;28.00;71.00;;;;;;5080623;28;20343;-76
2022/08/20 12:42:55;;;;;;;;;;;27.70;70.60;;;;;;5077941;28;19920;-76
2022/08/20 12:45:20;;;;;;;;;;;28.10;77.70;;;;;;5077360;28;19916;-75
2022/08/20 12:47:46;;;;;;;;;;;28.10;67.70;;;;;;5075488;28;20356;-75
2022/08/20 12:50:19;;;;;;;;;;;27.30;71.60;;;;;;5079903;28;19947;-75
2022/08/20 12:52:46;;;;;;;;;;;27.20;74.20;;;;;;5066742;28;19916;-76
2022/08/20 12:55:13;;;;;;;;;;;27.30;75.60;;;;;;5064825;28;19923;-75
2022/08/20 12:57:42;;;;;;;;;;;27.50;74.00;;;;;;5070088;28;19928;-75
2022/08/20 13:00:12;;;;;;;;;;;27.20;74.80;;;;;;5077108;28;19916;-76
2022/08/20 13:02:37;;;;;;;;;;;27.20;76.20;;;;;;5070512;28;19916;-76
2022/08/20 13:05:07;;;;;;;;;;;27.20;76.40;;;;;;5072481;28;19950;-75
2022/08/20 13:07:33;;;;;;;;;;;26.90;76.90;;;;;;5066700;28;20138;-75
2022/08/20 13:09:59;;;;;;;;;;;26.30;77.00;;;;;;5060541;28;19917;-75
2022/08/20 13:12:25;;;;;;;;;;;25.80;80.10;;;;;;5062452;28;20535;-76
2022/08/20 13:14:50;;;;;;;;;;;25.50;84.60;;;;;;5063701;28;20356;-76
2022/08/20 13:17:17;;;;;;;;;;;25.50;85.60;;;;;;5064774;28;19982;-76
2022/08/20 13:19:44;;;;;;;;;;;25.70;80.80;;;;;;5070573;28;20427;-77
2022/08/20 13:22:09;;;;;;;;;;;26.30;81.60;;;;;;5068414;28;20716;-80
2022/08/20 13:24:36;;;;;;;;;;;26.90;85.10;;;;;;5067935;28;19920;-76
2022/08/20 13:27:09;;;;;;;;;;;27.10;79.60;;;;;;5068959;28;20129;-75
2022/08/20 13:29:35;;;;;;;;;;;26.80;74.50;;;;;;5077346;28;20296;-75
2022/08/20 13:32:00;;;;;;;;;;;26.40;80.00;;;;;;5076506;28;19916;-75
2022/08/20 13:34:26;;;;;;;;;;;26.20;82.30;;;;;;5089125;28;20085;-75
2022/08/20 13:36:54;;;;;;;;;;;26.50;85.20;;;;;;5072525;28;19985;-75
2022/08/20 13:39:20;;;;;;;;;;;26.30;77.60;;;;;;5074809;28;20106;-76
2022/08/20 13:41:45;;;;;;;;;;;26.60;78.60;;;;;;5077842;28;19967;-75
2022/08/20 13:44:11;;;;;;;;;;;26.30;77.80;;;;;;5071240;28;20058;-75
2022/08/20 13:46:36;;;;;;;;;;;25.90;77.80;;;;;;5067208;28;20354;-76
2022/08/20 13:49:02;;;;;;;;;;;25.70;80.40;;;;;;5074889;28;20413;-75
2022/08/20 13:51:27;;;;;;;;;;;25.70;81.60;;;;;;5074507;28;20370;-75
2022/08/20 13:53:53;;;;;;;;;;;25.90;83.60;;;;;;5073858;28;19920;-75
2022/08/20 13:56:18;;;;;;;;;;;26.10;83.70;;;;;;5070629;28;19916;-75
2022/08/20 13:58:44;;;;;;;;;;;26.10;85.10;;;;;;5082415;28;19942;-76
2022/08/20 14:01:09;;;;;;;;;;;26.10;79.00;;;;;;5076318;28;19953;-76
2022/08/20 14:03:35;;;;;;;;;;;25.60;80.90;;;;;;5076099;28;20314;-76
2022/08/20 14:06:02;;;;;;;;;;;25.40;83.90;;;;;;5080303;28;20244;-75
2022/08/20 14:08:28;;;;;;;;;;;25.30;80.30;;;;;;5076562;28;19916;-74
2022/08/20 14:10:53;;;;;;;;;;;25.30;87.50;;;;;;5076621;28;19916;-75
2022/08/20 14:13:20;;;;;;;;;;;25.50;85.60;;;;;;5079354;28;19916;-75
2022/08/20 14:15:46;;;;;;;;;;;25.30;81.00;;;;;;5080645;28;20379;-75
2022/08/20 14:18:13;;;;;;;;;;;25.30;84.70;;;;;;5080004;28;20023;-75